Time;durP1;ratioP1;P1;durP2;ratioP2;P2;SDS_P1;SDS_P2;PMS_P1;PMS_P2;Temp;Humidity;BMP_temperature;BMP_pressure;BME280_temperature;BME280_humidity;BME280_pressure;Samples;Min_cycle;Max_cycle;Signal;HPM_P1;HPM_P2
2022/09/11 00:00:28;;;;;;;;;;;24.80;45.60;;;;;;1606712;73;1288;-67
2022/09/11 00:02:30;;;;;;;;;;;24.80;45.80;;;;;;1606380;73;707;-66
2022/09/11 00:04:32;;;;;;;;;;;24.80;45.70;;;;;;1610005;72;696;-67
2022/09/11 00:06:34;;;;;;;;;;;24.80;45.80;;;;;;1613523;73;742;-67
2022/09/11 00:08:36;;;;;;;;;;;24.80;45.80;;;;;;1620027;73;1113;-67
2022/09/11 00:10:43;;;;;;;;;;;24.70;45.80;;;;;;1601594;72;656;-67
2022/09/11 00:12:42;;;;;;;;;;;24.80;45.80;;;;;;1615296;73;1928;-68
2022/09/11 00:14:44;;;;;;;;;;;24.80;45.90;;;;;;1602783;73;1452;-68
2022/09/11 00:16:46;;;;;;;;;;;24.80;45.90;;;;;;1606595;73;769;-69
2022/09/11 00:18:48;;;;;;;;;;;24.80;45.90;;;;;;1604884;73;1207;-67
2022/09/11 00:20:52;;;;;;;;;;;24.80;45.90;;;;;;1614701;73;725;-68
2022/09/11 00:22:54;;;;;;;;;;;24.70;45.80;;;;;;1597629;72;1536;-67
2022/09/11 00:24:57;;;;;;;;;;;24.70;45.90;;;;;;1605783;73;708;-67
2022/09/11 00:26:59;;;;;;;;;;;24.80;46.00;;;;;;1610446;73;1130;-67
2022/09/11 00:29:03;;;;;;;;;;;24.80;45.90;;;;;;1613378;73;1474;-67
2022/09/11 00:31:08;;;;;;;;;;;24.80;46.00;;;;;;1605014;73;750;-66
2022/09/11 00:33:11;;;;;;;;;;;24.80;45.90;;;;;;1604781;72;1947;-66
2022/09/11 00:35:13;;;;;;;;;;;24.80;46.00;;;;;;1610823;72;1004;-68
2022/09/11 00:37:15;;;;;;;;;;;24.80;46.00;;;;;;1609559;73;1180;-66
2022/09/11 00:39:17;;;;;;;;;;;24.80;45.80;;;;;;1614034;73;727;-66
2022/09/11 00:41:20;;;;;;;;;;;24.80;45.70;;;;;;1607084;72;687;-66
2022/09/11 00:43:22;;;;;;;;;;;24.80;45.70;;;;;;1606425;72;1565;-68
2022/09/11 00:45:25;;;;;;;;;;;24.80;45.80;;;;;;1608502;73;736;-66
2022/09/11 00:47:27;;;;;;;;;;;24.80;45.80;;;;;;1609436;72;1136;-67
2022/09/11 00:49:34;;;;;;;;;;;24.80;45.70;;;;;;1616402;72;727;-66
2022/09/11 00:51:36;;;;;;;;;;;24.80;45.50;;;;;;1612349;73;714;-67
2022/09/11 00:53:38;;;;;;;;;;;24.80;45.70;;;;;;1602128;73;1924;-66
2022/09/11 00:55:41;;;;;;;;;;;24.80;45.50;;;;;;1616967;72;672;-67
2022/09/11 00:57:46;;;;;;;;;;;24.80;45.50;;;;;;1606717;72;1546;-67
2022/09/11 00:59:49;;;;;;;;;;;24.90;45.50;;;;;;1589642;73;710;-66
2022/09/11 01:01:51;;;;;;;;;;;24.90;45.60;;;;;;1599951;73;653;-66
2022/09/11 01:03:54;;;;;;;;;;;24.90;45.50;;;;;;1606174;73;712;-67
2022/09/11 01:05:56;;;;;;;;;;;24.80;45.50;;;;;;1610090;73;713;-67
2022/09/11 01:07:58;;;;;;;;;;;24.90;45.50;;;;;;1608679;73;1143;-67
2022/09/11 01:10:00;;;;;;;;;;;24.90;45.50;;;;;;1601737;72;722;-68
2022/09/11 01:12:08;;;;;;;;;;;24.80;45.40;;;;;;1597812;73;742;-67
2022/09/11 01:14:11;;;;;;;;;;;24.80;45.40;;;;;;1605046;73;2025;-67
2022/09/11 01:16:27;;;;;;;;;;;24.80;45.30;;;;;;1600067;72;750;-67
2022/09/11 01:18:31;;;;;;;;;;;24.80;45.20;;;;;;1603935;72;1609;-68
2022/09/11 01:20:35;;;;;;;;;;;24.80;45.40;;;;;;1618128;72;734;-67
2022/09/11 01:22:41;;;;;;;;;;;24.80;45.50;;;;;;1611939;73;692;-67
2022/09/11 01:25:01;;;;;;;;;;;24.80;45.50;;;;;;1597367;73;1590;-66
2022/09/11 01:27:08;;;;;;;;;;;24.70;45.50;;;;;;1612019;73;1146;-66
2022/09/11 01:29:26;;;;;;;;;;;24.70;45.50;;;;;;1613330;72;770;-68
2022/09/11 01:31:29;;;;;;;;;;;24.80;45.40;;;;;;1611681;72;677;-64
2022/09/11 01:33:43;;;;;;;;;;;24.70;45.40;;;;;;1611765;72;1919;-66
2022/09/11 01:36:03;;;;;;;;;;;24.80;45.50;;;;;;1603152;73;913;-68
2022/09/11 01:38:09;;;;;;;;;;;24.80;45.40;;;;;;1596450;72;1165;-66
2022/09/11 01:40:13;;;;;;;;;;;24.70;45.20;;;;;;1599337;73;648;-66
2022/09/11 01:42:16;;;;;;;;;;;24.80;45.10;;;;;;1607187;72;1105;-67
2022/09/11 01:44:21;;;;;;;;;;;24.80;45.20;;;;;;1605280;73;767;-67
2022/09/11 01:46:24;;;;;;;;;;;24.70;45.20;;;;;;1601208;73;735;-67
2022/09/11 01:48:28;;;;;;;;;;;24.80;45.20;;;;;;1606839;72;1118;-66
2022/09/11 01:50:30;;;;;;;;;;;24.80;45.00;;;;;;1597792;72;700;-66
2022/09/11 01:52:34;;;;;;;;;;;24.80;45.20;;;;;;1607915;73;1449;-66
2022/09/11 01:54:38;;;;;;;;;;;24.80;45.30;;;;;;1602791;72;1932;-66
2022/09/11 01:56:43;;;;;;;;;;;24.80;45.10;;;;;;1592324;73;1040;-68
2022/09/11 01:58:45;;;;;;;;;;;24.80;45.00;;;;;;1578198;73;1098;-66
2022/09/11 02:00:48;;;;;;;;;;;24.80;45.00;;;;;;1616880;73;727;-67
2022/09/11 02:02:52;;;;;;;;;;;24.80;45.00;;;;;;1608699;73;744;-66
2022/09/11 02:04:55;;;;;;;;;;;24.70;45.00;;;;;;1605759;73;713;-66
2022/09/11 02:07:02;;;;;;;;;;;24.80;44.90;;;;;;1607368;73;1495;-67
2022/09/11 02:09:08;;;;;;;;;;;24.80;44.80;;;;;;1610536;73;699;-66
2022/09/11 02:11:11;;;;;;;;;;;24.80;44.70;;;;;;1604999;73;740;-66
2022/09/11 02:13:14;;;;;;;;;;;24.80;44.70;;;;;;1605898;73;723;-66
2022/09/11 02:15:16;;;;;;;;;;;24.80;44.80;;;;;;1605770;73;2061;-66
2022/09/11 02:17:36;;;;;;;;;;;24.80;44.70;;;;;;1600809;73;1169;-66
2022/09/11 02:19:39;;;;;;;;;;;24.80;44.70;;;;;;1608720;73;776;-66
2022/09/11 02:21:41;;;;;;;;;;;24.80;44.70;;;;;;1610543;72;1423;-66
2022/09/11 02:23:44;;;;;;;;;;;24.70;44.70;;;;;;1610040;72;735;-66
2022/09/11 02:25:46;;;;;;;;;;;24.70;44.60;;;;;;1612016;73;729;-66
2022/09/11 02:27:49;;;;;;;;;;;24.80;44.60;;;;;;1616970;73;1153;-68
2022/09/11 02:29:52;;;;;;;;;;;24.80;44.60;;;;;;1604822;72;709;-66
2022/09/11 02:31:54;;;;;;;;;;;24.70;44.60;;;;;;1617027;72;713;-68
2022/09/11 02:33:56;;;;;;;;;;;24.80;44.70;;;;;;1611934;73;1947;-67
2022/09/11 02:36:00;;;;;;;;;;;24.70;44.70;;;;;;1608082;73;1599;-66
2022/09/11 02:38:12;;;;;;;;;;;24.80;44.70;;;;;;1603555;72;1191;-66
2022/09/11 02:40:19;;;;;;;;;;;24.80;44.60;;;;;;1608912;72;702;-68
2022/09/11 02:42:31;;;;;;;;;;;24.70;44.70;;;;;;1591331;73;758;-66
2022/09/11 02:44:36;;;;;;;;;;;24.80;44.70;;;;;;1609495;73;1004;-67
2022/09/11 02:46:42;;;;;;;;;;;24.70;44.80;;;;;;1602931;73;1080;-67
2022/09/11 02:48:46;;;;;;;;;;;24.70;44.70;;;;;;1611498;72;1522;-66
2022/09/11 02:51:06;;;;;;;;;;;24.70;44.70;;;;;;1594825;73;724;-67
2022/09/11 02:53:13;;;;;;;;;;;24.70;44.70;;;;;;1600966;72;691;-66
2022/09/11 02:55:22;;;;;;;;;;;24.70;44.80;;;;;;1601769;73;1936;-68
2022/09/11 02:57:42;;;;;;;;;;;24.70;44.70;;;;;;1597246;73;1147;-66
2022/09/11 02:59:45;;;;;;;;;;;24.80;44.70;;;;;;1532136;76;1050;-66
2022/09/11 03:01:47;;;;;;;;;;;24.70;44.90;;;;;;1565563;73;1591;-68
2022/09/11 03:03:49;;;;;;;;;;;24.80;44.70;;;;;;1607529;73;1631;-68
2022/09/11 03:05:51;;;;;;;;;;;24.80;44.70;;;;;;1608520;72;788;-69
2022/09/11 03:07:53;;;;;;;;;;;24.80;44.80;;;;;;1595904;73;1143;-67
2022/09/11 03:09:55;;;;;;;;;;;24.80;44.80;;;;;;1612464;72;716;-68
2022/09/11 03:11:57;;;;;;;;;;;24.80;44.80;;;;;;1598752;72;735;-67
2022/09/11 03:13:59;;;;;;;;;;;24.80;44.60;;;;;;1611253;73;1909;-68
2022/09/11 03:16:01;;;;;;;;;;;24.90;44.90;;;;;;1599159;72;724;-67
2022/09/11 03:18:04;;;;;;;;;;;24.80;44.80;;;;;;1613129;73;1526;-67
2022/09/11 03:20:06;;;;;;;;;;;24.80;44.70;;;;;;1612959;73;656;-67
2022/09/11 03:22:08;;;;;;;;;;;24.70;44.80;;;;;;1620307;73;696;-67
2022/09/11 03:24:11;;;;;;;;;;;24.80;44.70;;;;;;1606517;72;724;-68
2022/09/11 03:26:14;;;;;;;;;;;24.70;44.70;;;;;;1593798;72;967;-69
2022/09/11 03:28:16;;;;;;;;;;;24.80;44.50;;;;;;1602040;72;1147;-68
2022/09/11 03:30:18;;;;;;;;;;;24.80;44.60;;;;;;1606494;73;583;-68
2022/09/11 03:32:21;;;;;;;;;;;24.80;44.50;;;;;;1605712;72;1507;-68
2022/09/11 03:34:23;;;;;;;;;;;24.80;44.50;;;;;;1603827;73;1911;-68
2022/09/11 03:36:25;;;;;;;;;;;24.80;44.40;;;;;;1601573;73;721;-68
2022/09/11 03:38:27;;;;;;;;;;;24.80;44.50;;;;;;1607907;73;1112;-66
2022/09/11 03:40:29;;;;;;;;;;;24.80;44.40;;;;;;1611046;73;734;-67
2022/09/11 03:42:32;;;;;;;;;;;24.80;44.50;;;;;;1590407;73;732;-67
2022/09/11 03:44:34;;;;;;;;;;;24.80;44.70;;;;;;1582155;73;1283;-67
2022/09/11 03:46:37;;;;;;;;;;;24.80;44.70;;;;;;1612940;72;1278;-67
2022/09/11 03:48:39;;;;;;;;;;;24.80;44.80;;;;;;1609273;73;1316;-69
2022/09/11 03:50:41;;;;;;;;;;;24.70;44.60;;;;;;1613347;72;728;-67
2022/09/11 03:52:42;;;;;;;;;;;24.80;44.50;;;;;;1615251;72;709;-68
2022/09/11 03:54:46;;;;;;;;;;;24.70;44.40;;;;;;1615952;73;1955;-68
2022/09/11 03:56:48;;;;;;;;;;;24.80;44.40;;;;;;1594854;73;708;-68
2022/09/11 03:58:51;;;;;;;;;;;24.70;44.40;;;;;;1606115;72;1469;-66
2022/09/11 04:00:54;;;;;;;;;;;24.80;44.40;;;;;;1605606;72;1646;-66
2022/09/11 04:02:57;;;;;;;;;;;24.80;44.70;;;;;;1592908;73;710;-67
2022/09/11 04:04:58;;;;;;;;;;;24.80;44.70;;;;;;1611864;72;758;-67
2022/09/11 04:07:00;;;;;;;;;;;24.70;44.70;;;;;;1614586;73;1134;-68
2022/09/11 04:09:02;;;;;;;;;;;24.80;44.60;;;;;;1612296;73;689;-66
2022/09/11 04:11:04;;;;;;;;;;;24.70;44.70;;;;;;1611014;73;718;-66
2022/09/11 04:13:06;;;;;;;;;;;24.80;44.80;;;;;;1605732;73;1442;-66
2022/09/11 04:15:08;;;;;;;;;;;24.80;44.80;;;;;;1609263;73;2080;-66
2022/09/11 04:17:10;;;;;;;;;;;24.70;44.80;;;;;;1605836;72;1141;-67
2022/09/11 04:19:13;;;;;;;;;;;24.80;44.50;;;;;;1616249;73;727;-66
2022/09/11 04:21:16;;;;;;;;;;;24.70;44.50;;;;;;1612099;72;708;-67
2022/09/11 04:23:17;;;;;;;;;;;24.80;44.50;;;;;;1596613;73;701;-68
2022/09/11 04:25:20;;;;;;;;;;;24.70;44.60;;;;;;1601507;72;717;-67
2022/09/11 04:27:22;;;;;;;;;;;24.70;44.70;;;;;;1606042;72;1485;-67
2022/09/11 04:29:25;;;;;;;;;;;24.60;44.70;;;;;;1599623;73;749;-67
2022/09/11 04:31:27;;;;;;;;;;;24.70;45.10;;;;;;1601176;73;727;-67
2022/09/11 04:33:29;;;;;;;;;;;24.70;45.10;;;;;;1611239;73;731;-67
2022/09/11 04:35:31;;;;;;;;;;;24.70;45.30;;;;;;1613026;73;1939;-69
2022/09/11 04:37:34;;;;;;;;;;;24.70;45.00;;;;;;1611576;73;1082;-69
2022/09/11 04:39:36;;;;;;;;;;;24.60;44.70;;;;;;1619370;72;788;-67
2022/09/11 04:41:38;;;;;;;;;;;24.60;44.70;;;;;;1604630;72;1405;-67
2022/09/11 04:43:40;;;;;;;;;;;24.70;44.90;;;;;;1623395;72;700;-67
2022/09/11 04:45:41;;;;;;;;;;;24.60;44.80;;;;;;1596198;73;727;-67
2022/09/11 04:47:43;;;;;;;;;;;24.60;44.60;;;;;;1606344;73;1178;-68
2022/09/11 04:49:45;;;;;;;;;;;24.60;44.80;;;;;;1590356;72;754;-67
2022/09/11 04:51:47;;;;;;;;;;;24.60;45.00;;;;;;1597977;73;736;-66
2022/09/11 04:53:50;;;;;;;;;;;24.60;45.10;;;;;;1609624;73;718;-67
2022/09/11 04:55:52;;;;;;;;;;;24.60;45.20;;;;;;1603926;72;1895;-67
2022/09/11 04:57:54;;;;;;;;;;;24.60;45.20;;;;;;1617777;72;2053;-66
2022/09/11 04:59:57;;;;;;;;;;;24.60;45.20;;;;;;1619860;73;591;-66
2022/09/11 05:01:58;;;;;;;;;;;24.60;45.20;;;;;;1615118;73;840;-67
2022/09/11 05:04:00;;;;;;;;;;;24.60;45.20;;;;;;1614593;73;716;-65
2022/09/11 05:06:06;;;;;;;;;;;24.60;45.20;;;;;;1615433;73;774;-65
2022/09/11 05:08:07;;;;;;;;;;;24.70;45.30;;;;;;1612114;73;1197;-64
2022/09/11 05:10:09;;;;;;;;;;;24.70;45.20;;;;;;1619053;73;1559;-67
2022/09/11 05:12:11;;;;;;;;;;;24.80;45.00;;;;;;1603401;73;784;-69
2022/09/11 05:14:14;;;;;;;;;;;24.80;45.00;;;;;;1617992;73;719;-66
2022/09/11 05:16:16;;;;;;;;;;;24.70;44.90;;;;;;1614026;73;1904;-65
2022/09/11 05:18:18;;;;;;;;;;;24.70;45.00;;;;;;1610659;73;1146;-66
2022/09/11 05:20:19;;;;;;;;;;;24.70;45.30;;;;;;1620904;73;707;-66
2022/09/11 05:22:22;;;;;;;;;;;24.70;45.30;;;;;;1617349;73;742;-66
2022/09/11 05:24:23;;;;;;;;;;;24.60;45.20;;;;;;1612044;73;1582;-66
2022/09/11 05:26:26;;;;;;;;;;;24.60;45.30;;;;;;1608659;73;769;-66
2022/09/11 05:28:28;;;;;;;;;;;24.60;45.40;;;;;;1616223;73;1156;-67
2022/09/11 05:30:30;;;;;;;;;;;24.50;45.50;;;;;;1616281;73;715;-67
2022/09/11 05:32:32;;;;;;;;;;;24.60;45.50;;;;;;1616298;73;803;-68
2022/09/11 05:34:34;;;;;;;;;;;24.50;45.80;;;;;;1604954;73;1921;-66
2022/09/11 05:36:36;;;;;;;;;;;24.60;45.70;;;;;;1620326;73;730;-67
2022/09/11 05:38:40;;;;;;;;;;;24.50;45.80;;;;;;1620022;73;1617;-67
2022/09/11 05:40:43;;;;;;;;;;;24.60;45.70;;;;;;1618292;73;808;-68
2022/09/11 05:42:45;;;;;;;;;;;24.60;45.80;;;;;;1615415;73;738;-67
2022/09/11 05:44:47;;;;;;;;;;;24.60;46.00;;;;;;1616223;73;739;-65
2022/09/11 05:46:49;;;;;;;;;;;24.60;46.00;;;;;;1619781;73;770;-65
2022/09/11 05:48:51;;;;;;;;;;;24.70;45.90;;;;;;1620747;73;1178;-66
2022/09/11 05:50:53;;;;;;;;;;;24.60;45.90;;;;;;1620808;73;715;-65
2022/09/11 05:52:55;;;;;;;;;;;24.70;46.00;;;;;;1620509;73;1551;-65
2022/09/11 05:54:57;;;;;;;;;;;24.60;45.90;;;;;;1617012;73;1910;-66
2022/09/11 05:56:59;;;;;;;;;;;24.60;45.80;;;;;;1616430;73;799;-65
2022/09/11 05:59:01;;;;;;;;;;;24.50;45.70;;;;;;1615516;73;1103;-67
2022/09/11 06:01:04;;;;;;;;;;;24.50;45.80;;;;;;1620917;73;819;-66
2022/09/11 06:03:06;;;;;;;;;;;24.50;45.90;;;;;;1615670;73;858;-66
2022/09/11 06:05:08;;;;;;;;;;;24.60;45.80;;;;;;1619951;73;816;-66
2022/09/11 06:07:10;;;;;;;;;;;24.50;45.80;;;;;;1617142;73;1582;-67
2022/09/11 06:09:12;;;;;;;;;;;24.60;45.70;;;;;;1617392;73;1083;-65
2022/09/11 06:11:14;;;;;;;;;;;24.60;45.80;;;;;;1618237;73;785;-67
2022/09/11 06:13:21;;;;;;;;;;;24.60;45.70;;;;;;1620778;73;821;-68
2022/09/11 06:15:20;;;;;;;;;;;24.70;45.70;;;;;;1618730;73;1921;-66
2022/09/11 06:17:22;;;;;;;;;;;24.70;45.50;;;;;;1619553;73;1126;-66
2022/09/11 06:19:23;;;;;;;;;;;24.70;45.40;;;;;;1622605;72;782;-66
2022/09/11 06:21:28;;;;;;;;;;;24.70;45.50;;;;;;1615051;73;707;-66
2022/09/11 06:23:29;;;;;;;;;;;24.70;45.50;;;;;;1615689;73;1617;-66
2022/09/11 06:25:31;;;;;;;;;;;24.70;45.60;;;;;;1620829;73;905;-66
2022/09/11 06:27:33;;;;;;;;;;;24.60;45.30;;;;;;1616951;73;1141;-65
2022/09/11 06:29:34;;;;;;;;;;;24.70;45.50;;;;;;1619700;73;772;-66
2022/09/11 06:31:37;;;;;;;;;;;24.70;45.50;;;;;;1621018;73;706;-66
2022/09/11 06:33:39;;;;;;;;;;;24.70;45.60;;;;;;1613197;73;1553;-66
2022/09/11 06:35:41;;;;;;;;;;;24.70;45.40;;;;;;1618782;73;1916;-66
2022/09/11 06:37:43;;;;;;;;;;;24.70;45.40;;;;;;1586298;74;1140;-66
2022/09/11 06:39:45;;;;;;;;;;;24.80;45.30;;;;;;1589404;74;741;-66
2022/09/11 06:41:47;;;;;;;;;;;24.70;45.30;;;;;;1584844;73;805;-65
2022/09/11 06:43:49;;;;;;;;;;;24.70;45.30;;;;;;1585872;73;714;-67
2022/09/11 06:45:51;;;;;;;;;;;24.70;45.30;;;;;;1589157;73;708;-68
2022/09/11 06:47:52;;;;;;;;;;;24.70;45.40;;;;;;1554303;76;1567;-67
2022/09/11 06:49:55;;;;;;;;;;;24.70;45.30;;;;;;1556321;76;710;-67
2022/09/11 06:51:58;;;;;;;;;;;24.80;45.50;;;;;;1586452;74;724;-62
2022/09/11 06:54:01;;;;;;;;;;;24.90;45.50;;;;;;1585552;73;752;-66
2022/09/11 06:56:03;;;;;;;;;;;24.90;45.30;;;;;;1586018;74;1921;-69
2022/09/11 06:58:05;;;;;;;;;;;24.90;45.00;;;;;;1586443;73;1134;-68
2022/09/11 07:00:08;;;;;;;;;;;24.80;44.40;;;;;;1580717;74;764;-66
2022/09/11 07:02:10;;;;;;;;;;;24.80;43.60;;;;;;1580988;73;1519;-68
2022/09/11 07:04:11;;;;;;;;;;;24.70;44.00;;;;;;1576102;73;741;-66
2022/09/11 07:06:15;;;;;;;;;;;24.60;43.50;;;;;;1580099;73;765;-66
2022/09/11 07:08:17;;;;;;;;;;;24.50;43.70;;;;;;1580379;73;2021;-66
2022/09/11 07:10:19;;;;;;;;;;;24.50;43.60;;;;;;1577774;73;669;-66
2022/09/11 07:12:22;;;;;;;;;;;24.40;43.80;;;;;;1581689;73;711;-67
2022/09/11 07:14:24;;;;;;;;;;;24.30;43.90;;;;;;1581613;73;630;-66
2022/09/11 07:16:26;;;;;;;;;;;24.40;43.90;;;;;;1581849;73;1917;-67
2022/09/11 07:18:35;;;;;;;;;;;24.30;43.80;;;;;;1580062;75;1117;-66
2022/09/11 07:20:38;;;;;;;;;;;24.30;43.90;;;;;;1565443;76;747;-66
2022/09/11 07:22:40;;;;;;;;;;;24.20;43.80;;;;;;1583378;73;713;-67
2022/09/11 07:24:42;;;;;;;;;;;24.30;43.80;;;;;;1581782;73;689;-67
2022/09/11 07:26:43;;;;;;;;;;;24.30;43.80;;;;;;1613709;73;743;-67
2022/09/11 07:28:51;;;;;;;;;;;24.30;43.80;;;;;;1618284;73;1143;-66
2022/09/11 07:30:49;;;;;;;;;;;24.30;43.70;;;;;;1612543;73;1639;-67
2022/09/11 07:32:51;;;;;;;;;;;24.20;43.60;;;;;;1618121;73;715;-67
2022/09/11 07:34:53;;;;;;;;;;;24.20;43.60;;;;;;1619609;73;774;-66
2022/09/11 07:36:54;;;;;;;;;;;24.20;43.80;;;;;;1618841;73;1932;-67
2022/09/11 07:38:57;;;;;;;;;;;24.10;43.80;;;;;;1611369;73;1171;-67
2022/09/11 07:40:59;;;;;;;;;;;24.10;43.80;;;;;;1616346;73;744;-67
2022/09/11 07:43:01;;;;;;;;;;;24.00;43.80;;;;;;1619299;73;729;-66
2022/09/11 07:45:03;;;;;;;;;;;24.10;43.90;;;;;;1618539;73;1596;-67
2022/09/11 07:47:05;;;;;;;;;;;24.10;43.90;;;;;;1581222;75;768;-66
2022/09/11 07:49:08;;;;;;;;;;;24.00;43.90;;;;;;1577976;75;1149;-66
2022/09/11 07:51:11;;;;;;;;;;;24.00;44.00;;;;;;1580215;75;694;-67
2022/09/11 07:53:13;;;;;;;;;;;24.00;44.00;;;;;;1578754;75;714;-66
2022/09/11 07:55:15;;;;;;;;;;;24.00;43.90;;;;;;1575545;75;718;-66
2022/09/11 07:57:18;;;;;;;;;;;24.00;43.90;;;;;;1585893;75;1937;-68
2022/09/11 07:59:21;;;;;;;;;;;24.00;44.00;;;;;;1574289;75;1535;-67
2022/09/11 08:01:25;;;;;;;;;;;23.90;43.90;;;;;;1584387;75;571;-67
2022/09/11 08:03:26;;;;;;;;;;;24.00;43.90;;;;;;1578103;75;1053;-67
2022/09/11 08:05:28;;;;;;;;;;;24.00;43.90;;;;;;1571549;75;707;-68
2022/09/11 08:07:31;;;;;;;;;;;24.00;43.80;;;;;;1556441;75;1150;-66
2022/09/11 08:09:32;;;;;;;;;;;24.00;43.90;;;;;;1585968;74;741;-68
2022/09/11 08:11:38;;;;;;;;;;;24.00;43.90;;;;;;1548449;76;733;-66
2022/09/11 08:13:40;;;;;;;;;;;23.90;43.90;;;;;;1578913;75;1493;-66
2022/09/11 08:15:46;;;;;;;;;;;23.90;43.80;;;;;;1580811;75;1911;-66
2022/09/11 08:17:48;;;;;;;;;;;23.90;43.90;;;;;;1573419;75;1064;-66
2022/09/11 08:19:50;;;;;;;;;;;24.00;43.80;;;;;;1552897;76;764;-66
2022/09/11 08:21:52;;;;;;;;;;;24.00;43.90;;;;;;1576551;75;718;-67
2022/09/11 08:23:54;;;;;;;;;;;23.90;43.90;;;;;;1581278;75;730;-66
2022/09/11 08:25:56;;;;;;;;;;;23.90;43.90;;;;;;1582029;75;740;-66
2022/09/11 08:27:58;;;;;;;;;;;23.90;43.90;;;;;;1579539;75;1822;-65
2022/09/11 08:30:00;;;;;;;;;;;23.90;43.90;;;;;;1581466;75;805;-67
2022/09/11 08:32:02;;;;;;;;;;;23.90;43.90;;;;;;1584687;75;762;-66
2022/09/11 08:34:04;;;;;;;;;;;23.90;43.90;;;;;;1582489;75;762;-67
2022/09/11 08:36:08;;;;;;;;;;;23.90;43.80;;;;;;1584464;75;1927;-67
2022/09/11 08:38:10;;;;;;;;;;;23.90;43.80;;;;;;1578512;75;1141;-66
2022/09/11 08:40:12;;;;;;;;;;;24.00;43.80;;;;;;1584250;75;1483;-66
2022/09/11 08:42:14;;;;;;;;;;;23.90;43.70;;;;;;1572127;75;921;-66
2022/09/11 08:44:21;;;;;;;;;;;23.90;43.80;;;;;;1582421;75;747;-66
2022/09/11 08:46:23;;;;;;;;;;;23.90;43.70;;;;;;1579671;75;625;-65
2022/09/11 08:48:27;;;;;;;;;;;23.90;43.80;;;;;;1583544;73;1173;-67
2022/09/11 08:50:30;;;;;;;;;;;23.90;43.80;;;;;;1583182;75;2167;-66
2022/09/11 08:52:32;;;;;;;;;;;23.90;43.80;;;;;;1585843;75;833;-66
2022/09/11 08:54:36;;;;;;;;;;;23.80;43.70;;;;;;1579899;75;1534;-67
2022/09/11 08:56:38;;;;;;;;;;;23.90;43.90;;;;;;1579512;75;1911;-66
2022/09/11 08:58:44;;;;;;;;;;;23.90;43.80;;;;;;1577373;75;1144;-66
2022/09/11 09:00:57;;;;;;;;;;;23.80;43.90;;;;;;1549572;75;727;-66
2022/09/11 09:03:07;;;;;;;;;;;23.90;43.90;;;;;;1563463;76;700;-65
2022/09/11 09:05:13;;;;;;;;;;;23.90;43.90;;;;;;1614926;73;1400;-66
2022/09/11 09:07:28;;;;;;;;;;;23.80;43.90;;;;;;1616592;73;1591;-66
2022/09/11 09:09:32;;;;;;;;;;;23.90;43.90;;;;;;1610274;73;1518;-66
2022/09/11 09:11:41;;;;;;;;;;;23.90;44.20;;;;;;1615708;73;612;-66
2022/09/11 09:14:01;;;;;;;;;;;23.90;44.30;;;;;;1616970;73;725;-67
2022/09/11 09:16:05;;;;;;;;;;;23.80;44.30;;;;;;1614629;73;1906;-67
2022/09/11 09:18:20;;;;;;;;;;;23.90;44.40;;;;;;1615512;73;1142;-66
2022/09/11 09:20:25;;;;;;;;;;;23.90;44.40;;;;;;1616810;73;804;-66
2022/09/11 09:22:31;;;;;;;;;;;23.90;44.30;;;;;;1618292;73;2013;-68
2022/09/11 09:24:43;;;;;;;;;;;23.90;44.40;;;;;;1613424;73;784;-67
2022/09/11 09:26:46;;;;;;;;;;;23.90;44.40;;;;;;1579719;74;1165;-66
2022/09/11 09:28:51;;;;;;;;;;;24.00;44.20;;;;;;1618475;73;1131;-66
2022/09/11 09:30:56;;;;;;;;;;;23.90;44.20;;;;;;1616529;73;766;-66
2022/09/11 09:33:03;;;;;;;;;;;23.90;44.10;;;;;;1616910;73;1044;-66
2022/09/11 09:35:06;;;;;;;;;;;23.80;44.00;;;;;;1617803;73;1745;-66
2022/09/11 09:37:12;;;;;;;;;;;23.80;44.10;;;;;;1614984;73;1936;-66
2022/09/11 09:39:15;;;;;;;;;;;23.80;44.10;;;;;;1616655;73;1103;-67
2022/09/11 09:41:24;;;;;;;;;;;23.90;44.20;;;;;;1618739;73;710;-66
2022/09/11 09:43:37;;;;;;;;;;;23.80;44.20;;;;;;1616757;73;1870;-65
2022/09/11 09:45:43;;;;;;;;;;;23.80;44.30;;;;;;1558234;76;964;-66
2022/09/11 09:47:46;;;;;;;;;;;23.80;44.30;;;;;;1607114;73;1661;-66
2022/09/11 09:49:48;;;;;;;;;;;23.80;44.20;;;;;;1574194;74;721;-66
2022/09/11 09:51:50;;;;;;;;;;;23.80;44.20;;;;;;1608264;72;1532;-65
2022/09/11 09:53:54;;;;;;;;;;;23.80;44.20;;;;;;1618053;73;799;-66
2022/09/11 09:55:56;;;;;;;;;;;23.80;44.20;;;;;;1618216;73;709;-66
2022/09/11 09:57:58;;;;;;;;;;;23.80;44.20;;;;;;1614865;73;1936;-65
2022/09/11 10:00:01;;;;;;;;;;;23.80;44.20;;;;;;1617353;73;732;-65
2022/09/11 10:02:03;;;;;;;;;;;23.80;44.20;;;;;;1618193;73;851;-66
2022/09/11 10:04:07;;;;;;;;;;;23.80;44.20;;;;;;1618355;73;718;-66
2022/09/11 10:06:09;;;;;;;;;;;23.80;44.20;;;;;;1617556;73;1797;-66
2022/09/11 10:08:19;;;;;;;;;;;23.80;44.20;;;;;;1615358;73;1143;-66
2022/09/11 10:10:25;;;;;;;;;;;23.80;44.30;;;;;;1614215;73;1606;-66
2022/09/11 10:12:27;;;;;;;;;;;23.80;44.30;;;;;;1605589;73;705;-69
2022/09/11 10:14:35;;;;;;;;;;;23.80;44.40;;;;;;1615703;72;728;-65
2022/09/11 10:16:34;;;;;;;;;;;23.80;44.40;;;;;;1610714;73;1922;-66
2022/09/11 10:18:36;;;;;;;;;;;23.80;44.40;;;;;;1615406;72;1529;-66
2022/09/11 10:20:39;;;;;;;;;;;23.80;44.40;;;;;;1605048;73;733;-66
2022/09/11 10:22:42;;;;;;;;;;;23.80;44.40;;;;;;1611240;73;729;-66
2022/09/11 10:24:44;;;;;;;;;;;23.80;44.60;;;;;;1613049;73;737;-66
2022/09/11 10:26:49;;;;;;;;;;;23.80;44.90;;;;;;1620035;73;761;-65
2022/09/11 10:28:50;;;;;;;;;;;23.80;44.90;;;;;;1619033;72;1656;-66
2022/09/11 10:30:53;;;;;;;;;;;23.70;45.00;;;;;;1619787;73;711;-66
2022/09/11 10:32:55;;;;;;;;;;;23.70;45.00;;;;;;1618485;73;1540;-66
2022/09/11 10:34:57;;;;;;;;;;;23.80;45.00;;;;;;1617202;73;710;-67
2022/09/11 10:37:01;;;;;;;;;;;23.80;45.00;;;;;;1612849;73;1932;-66
2022/09/11 10:39:02;;;;;;;;;;;23.80;45.00;;;;;;1619116;73;1092;-65
2022/09/11 10:41:09;;;;;;;;;;;23.80;45.20;;;;;;1622397;73;745;-66
2022/09/11 10:43:18;;;;;;;;;;;23.80;45.20;;;;;;1619292;73;695;-66
2022/09/11 10:45:20;;;;;;;;;;;23.80;45.30;;;;;;1621205;73;766;-66
2022/09/11 10:47:28;;;;;;;;;;;23.80;45.30;;;;;;1620122;73;1565;-63
2022/09/11 10:49:30;;;;;;;;;;;23.80;45.40;;;;;;1584831;74;1025;-70
2022/09/11 10:51:33;;;;;;;;;;;23.80;45.30;;;;;;1621183;73;656;-72
2022/09/11 10:53:36;;;;;;;;;;;23.90;45.40;;;;;;1620635;73;771;-66
2022/09/11 10:55:43;;;;;;;;;;;23.80;45.20;;;;;;1621445;73;630;-66
2022/09/11 10:57:47;;;;;;;;;;;23.90;45.20;;;;;;1583225;75;1926;-65
2022/09/11 10:59:50;;;;;;;;;;;23.90;45.10;;;;;;1535394;73;230423;-68
2022/09/11 11:01:52;;;;;;;;;;;23.90;45.10;;;;;;1541839;74;1627;-68
2022/09/11 11:03:55;;;;;;;;;;;23.90;45.20;;;;;;1563335;75;763;-68
2022/09/11 11:06:18;;;;;;;;;;;23.80;45.20;;;;;;1567220;74;721;-68
2022/09/11 11:08:40;;;;;;;;;;;23.90;45.30;;;;;;1532412;76;1094;-67
2022/09/11 11:10:50;;;;;;;;;;;23.80;45.30;;;;;;1547858;74;1202;-68
2022/09/11 11:13:06;;;;;;;;;;;23.80;45.40;;;;;;1545042;74;1008;-67
2022/09/11 11:15:10;;;;;;;;;;;23.80;45.40;;;;;;1556223;74;1581;-68
2022/09/11 11:17:30;;;;;;;;;;;23.80;45.50;;;;;;1557974;74;1926;-67
2022/09/11 11:19:37;;;;;;;;;;;23.80;45.50;;;;;;1554184;74;1129;-69
2022/09/11 11:21:47;;;;;;;;;;;23.80;45.50;;;;;;1558166;74;1928;-67
2022/09/11 11:23:51;;;;;;;;;;;23.80;45.50;;;;;;1548821;74;762;-68
2022/09/11 11:25:57;;;;;;;;;;;23.80;45.50;;;;;;1552060;74;1127;-67
2022/09/11 11:28:03;;;;;;;;;;;23.80;45.60;;;;;;1571706;74;801;-67
2022/09/11 11:30:16;;;;;;;;;;;23.80;45.60;;;;;;1567166;75;1753;-69
2022/09/11 11:32:19;;;;;;;;;;;23.80;45.70;;;;;;1589024;73;685;-67
2022/09/11 11:34:23;;;;;;;;;;;23.90;45.80;;;;;;1577907;73;1866;-67
2022/09/11 11:36:33;;;;;;;;;;;23.90;45.80;;;;;;1563694;74;1477;-67
2022/09/11 11:38:59;;;;;;;;;;;23.80;45.70;;;;;;1573450;75;726;-67
2022/09/11 11:41:02;;;;;;;;;;;23.80;45.70;;;;;;1619643;71;1619;-67
2022/09/11 11:43:10;;;;;;;;;;;23.80;45.70;;;;;;1631820;71;1657;-68
2022/09/11 11:45:22;;;;;;;;;;;23.90;46.20;;;;;;1621834;71;1045;-67
2022/09/11 11:47:26;;;;;;;;;;;23.80;45.80;;;;;;1626617;72;834;-67
2022/09/11 11:49:32;;;;;;;;;;;23.90;46.00;;;;;;1633058;71;1156;-67
2022/09/11 11:51:36;;;;;;;;;;;23.90;46.30;;;;;;1629827;71;1954;-66
2022/09/11 11:53:42;;;;;;;;;;;23.80;45.90;;;;;;1635279;71;1646;-67
2022/09/11 11:56:02;;;;;;;;;;;23.70;45.90;;;;;;1624890;71;813;-67
2022/09/11 11:58:12;;;;;;;;;;;23.80;46.00;;;;;;1616651;71;1918;-68
2022/09/11 12:00:15;;;;;;;;;;;23.80;46.00;;;;;;1628892;71;1574;-67
2022/09/11 12:02:24;;;;;;;;;;;23.90;46.20;;;;;;1633461;71;690;-67
2022/09/11 12:04:28;;;;;;;;;;;23.90;46.20;;;;;;1622925;71;1050;-67
2022/09/11 12:06:30;;;;;;;;;;;23.80;46.10;;;;;;1609305;71;1034;-68
2022/09/11 12:08:32;;;;;;;;;;;23.90;46.20;;;;;;1627431;71;798;-67
2022/09/11 12:10:36;;;;;;;;;;;23.90;46.20;;;;;;1632472;71;1077;-67
2022/09/11 12:12:46;;;;;;;;;;;23.90;46.90;;;;;;1632304;71;1539;-68
2022/09/11 12:14:55;;;;;;;;;;;23.80;47.10;;;;;;1632343;71;751;-67
2022/09/11 12:16:56;;;;;;;;;;;23.70;46.50;;;;;;1628194;72;1920;-67